createdAt,value
2018-10-12T12:12:03.393Z,27.75
2018-10-12T12:13:03.429Z,27.65
2018-10-12T12:14:03.383Z,27.77
2018-10-12T12:15:03.343Z,28.21
2018-10-12T12:16:03.330Z,28.56
2018-10-12T12:17:03.313Z,29.12
2018-10-12T12:18:03.312Z,29.34
2018-10-12T12:19:03.294Z,29.58
2018-10-12T12:20:03.281Z,29.97
2018-10-12T12:21:03.266Z,29.82
2018-10-12T12:22:03.252Z,29.95
2018-10-12T12:23:03.259Z,30.01
2018-10-12T12:24:03.234Z,30.11
2018-10-12T12:25:03.221Z,29.73
2018-10-12T12:26:03.208Z,30.05
2018-10-12T12:27:03.199Z,29.98
2018-10-12T12:28:03.206Z,30.16
2018-10-12T12:29:03.181Z,30.05
2018-10-12T12:30:03.172Z,30.17
2018-10-12T12:31:03.159Z,30.08
2018-10-12T12:32:03.147Z,30.34
2018-10-12T12:33:03.155Z,30.29
2018-10-12T12:34:03.124Z,30.02
2018-10-12T12:35:03.228Z,30.39
2018-10-12T12:36:03.228Z,30.47
2018-10-12T12:37:03.102Z,30.13
2018-10-12T12:38:03.112Z,29.87
2018-10-12T12:39:03.080Z,29.49
2018-10-12T12:40:03.122Z,29.11
2018-10-12T12:41:03.066Z,29.06
2018-10-12T12:42:03.052Z,29.11
2018-10-12T12:43:03.043Z,29.39
2018-10-12T12:44:03.052Z,29.73
2018-10-12T12:45:03.023Z,29.86
2018-10-12T12:46:03.011Z,29.65
2018-10-12T12:47:03.060Z,29.21
2018-10-12T12:48:03.152Z,29.15
2018-10-12T12:49:03.191Z,29.23
2018-10-12T12:50:02.976Z,29.51
2018-10-12T12:51:02.968Z,29.65
2018-10-12T12:52:02.957Z,30.11
2018-10-12T12:53:02.951Z,30.01
2018-10-12T12:54:02.942Z,29.86
2018-10-12T12:55:02.948Z,30.19
2018-10-12T12:56:02.919Z,30.17
2018-10-12T12:57:02.911Z,30.15
2018-10-12T12:58:02.903Z,30.45
2018-10-12T12:59:03.344Z,30.37
2018-10-12T13:00:02.956Z,30.55
2018-10-12T13:01:02.879Z,30.32
2018-10-12T13:02:02.868Z,30.45
2018-10-12T13:03:02.855Z,30.65
2018-10-12T13:04:02.848Z,30.79
2018-10-12T13:05:02.843Z,30.07
2018-10-12T13:06:02.845Z,30.05
2018-10-12T13:07:02.820Z,30.01
2018-10-12T13:08:02.813Z,30.15
2018-10-12T13:09:02.800Z,30.11
2018-10-12T13:10:02.810Z,30.57
2018-10-12T13:11:02.783Z,31.02
2018-10-12T13:12:02.772Z,30.70
2018-10-12T13:13:02.766Z,30.75
2018-10-12T13:14:02.755Z,31.01
2018-10-12T13:15:02.784Z,30.53
2018-10-12T13:16:02.741Z,30.32
2018-10-12T13:17:02.731Z,30.07
2018-10-12T13:18:02.722Z,30.24
2018-10-12T13:19:02.716Z,30.65
2018-10-12T13:20:02.703Z,30.32
2018-10-12T13:21:02.713Z,30.02
2018-10-12T13:22:02.684Z,29.51
2018-10-12T13:23:02.680Z,29.61
2018-10-12T13:24:02.665Z,29.58
2018-10-12T13:25:02.681Z,29.19
2018-10-12T13:26:02.787Z,29.09
2018-10-12T13:27:02.653Z,29.08
2018-10-12T13:28:02.637Z,29.12
2018-10-12T13:29:02.626Z,29.11
2018-10-12T13:30:02.615Z,29.16
2018-10-12T13:31:02.624Z,29.27
2018-10-12T13:32:02.714Z,29.24
2018-10-12T13:33:02.590Z,29.31
2018-10-12T13:34:02.578Z,29.52
2018-10-12T13:35:02.573Z,29.19
2018-10-12T13:36:02.579Z,29.11
2018-10-12T13:37:02.554Z,29.09
2018-10-12T13:38:02.547Z,28.81
2018-10-12T13:39:02.537Z,28.71
2018-10-12T13:40:02.593Z,28.73
2018-10-12T13:41:02.536Z,28.66
2018-10-12T13:42:02.511Z,28.64
2018-10-12T13:43:02.503Z,28.55
2018-10-12T13:44:02.497Z,28.51
2018-10-12T13:45:02.485Z,28.74
2018-10-12T13:46:02.562Z,29.08
2018-10-12T13:47:02.464Z,29.24
2018-10-12T13:48:02.456Z,29.23
2018-10-12T13:49:02.452Z,29.43
2018-10-12T13:50:02.440Z,29.89
2018-10-12T13:51:02.434Z,30.16
2018-10-12T13:52:02.448Z,30.32
2018-10-12T13:53:02.438Z,30.65
2018-10-12T13:54:02.408Z,30.57
2018-10-12T13:55:02.411Z,30.99
2018-10-12T13:56:02.395Z,31.48
2018-10-12T13:57:02.386Z,31.54
2018-10-12T13:58:02.413Z,31.81
2018-10-12T13:59:02.370Z,31.85
2018-10-12T14:00:02.365Z,31.54
2018-10-12T14:01:02.356Z,31.76
2018-10-12T14:02:02.351Z,31.85
2018-10-12T14:03:02.359Z,30.97
2018-10-12T14:04:02.334Z,30.35
2018-10-12T14:05:02.328Z,29.68
2018-10-12T14:06:02.419Z,29.33
2018-10-12T14:07:02.309Z,28.67
2018-10-12T14:08:02.342Z,28.31
2018-10-12T14:09:02.332Z,28.07
2018-10-12T14:10:02.322Z,28.00
2018-10-12T14:11:02.284Z,28.03
2018-10-12T14:12:02.288Z,27.96
2018-10-12T14:13:02.330Z,27.82
2018-10-12T14:14:02.259Z,28.09
2018-10-12T14:15:02.266Z,28.77
2018-10-12T14:16:02.243Z,29.36
2018-10-12T14:17:02.232Z,29.82
2018-10-12T14:18:02.293Z,29.51
2018-10-12T14:19:02.485Z,29.42
2018-10-12T14:20:02.280Z,29.37
2018-10-12T14:21:02.333Z,29.39
2018-10-12T14:22:02.206Z,29.52
2018-10-12T14:23:02.224Z,29.67
2018-10-12T14:24:02.221Z,29.51
2018-10-12T14:25:02.191Z,29.39
2018-10-12T14:26:02.198Z,28.80
2018-10-12T14:27:02.171Z,28.55
2018-10-12T14:28:02.220Z,28.24
2018-10-12T14:29:02.157Z,28.07
2018-10-12T14:30:02.133Z,27.82
2018-10-12T14:31:02.124Z,27.69
2018-10-12T14:32:02.142Z,27.44
2018-10-12T14:33:02.127Z,27.40
2018-10-12T14:34:02.135Z,27.21
2018-10-12T14:35:02.089Z,27.13
2018-10-12T14:36:02.095Z,27.09
2018-10-12T14:37:02.076Z,27.00
2018-10-12T14:38:02.141Z,26.87
2018-10-12T14:39:02.075Z,26.89
2018-10-12T14:40:02.137Z,26.82
2018-10-12T14:41:02.097Z,26.84
2018-10-12T14:42:02.022Z,26.80
2018-10-12T14:43:02.516Z,26.76
2018-10-12T14:44:02.177Z,26.63
2018-10-12T14:45:02.163Z,26.69
2018-10-12T14:46:02.097Z,26.72
2018-10-12T14:47:02.020Z,26.63
2018-10-12T14:48:01.995Z,26.69
2018-10-12T14:49:01.993Z,26.55
2018-10-12T14:50:02.519Z,26.65
2018-10-12T14:51:02.002Z,26.66
2018-10-12T14:52:01.960Z,26.54
2018-10-12T14:53:02.609Z,26.65
2018-10-12T14:54:01.934Z,26.67
2018-10-12T14:55:02.004Z,26.69
2018-10-12T14:56:01.971Z,26.69
2018-10-12T14:57:01.913Z,26.72
2018-10-12T14:58:01.906Z,26.66
2018-10-12T14:59:02.007Z,26.66
2018-10-12T15:00:01.887Z,26.66
2018-10-12T15:01:01.873Z,26.54
2018-10-12T15:02:01.901Z,26.65
2018-10-12T15:03:01.851Z,26.65
2018-10-12T15:04:01.835Z,26.57
2018-10-12T15:05:01.829Z,26.47
2018-10-12T15:06:01.840Z,26.52
2018-10-12T15:07:01.817Z,26.51
2018-10-12T15:08:01.918Z,26.45
2018-10-12T15:09:01.797Z,26.44
2018-10-12T15:10:01.779Z,26.52
2018-10-12T15:11:01.761Z,26.43
2018-10-12T15:12:01.742Z,26.28
2018-10-12T15:13:01.776Z,26.26
2018-10-12T15:14:01.718Z,26.20
2018-10-12T15:15:01.714Z,26.12
2018-10-12T15:16:01.704Z,26.21
2018-10-12T15:17:01.718Z,26.17
2018-10-12T15:18:01.679Z,26.21
2018-10-12T15:19:01.689Z,26.21
2018-10-12T15:20:01.663Z,26.28
2018-10-12T15:21:01.779Z,26.29
2018-10-12T15:22:01.641Z,26.26
2018-10-12T15:23:01.633Z,26.13
2018-10-12T15:24:01.625Z,26.17
2018-10-12T15:25:01.631Z,26.18
2018-10-12T15:26:01.603Z,26.12
2018-10-12T15:27:01.591Z,26.13
2018-10-12T15:28:01.579Z,26.10
2018-10-12T15:29:01.569Z,26.09
2018-10-12T15:30:01.573Z,26.07
2018-10-12T15:31:01.547Z,25.87
2018-10-12T15:32:01.569Z,25.97
2018-10-12T15:33:01.528Z,25.80
2018-10-12T15:34:01.516Z,25.79
2018-10-12T15:35:01.530Z,25.76
2018-10-12T15:36:01.497Z,25.80
2018-10-12T15:37:01.496Z,25.67
2018-10-12T15:38:01.474Z,25.72
2018-10-12T15:39:01.467Z,25.75
2018-10-12T15:40:01.453Z,25.80
2018-10-12T15:41:01.461Z,25.80
2018-10-12T15:42:01.434Z,25.64
2018-10-12T15:43:01.564Z,25.62
2018-10-12T15:44:01.412Z,25.64
2018-10-12T15:45:01.409Z,25.58
2018-10-12T15:46:01.414Z,25.55
2018-10-12T15:47:01.383Z,25.55
2018-10-12T15:48:01.371Z,25.58
2018-10-12T15:49:01.359Z,25.54
2018-10-12T15:50:01.352Z,25.51
2018-10-12T15:51:01.422Z,25.43
2018-10-12T15:52:01.326Z,25.42
2018-10-12T15:53:01.318Z,25.38
2018-10-12T15:54:01.305Z,25.28
2018-10-12T15:55:01.297Z,25.17
2018-10-12T15:56:01.321Z,25.21
2018-10-12T15:57:01.285Z,25.02
2018-10-12T15:58:01.297Z,25.08
2018-10-12T15:59:01.250Z,24.98
2018-10-12T16:00:01.241Z,24.93
2018-10-12T16:01:01.229Z,24.77
2018-10-12T16:02:01.239Z,24.77
2018-10-12T16:03:01.219Z,24.77
2018-10-12T16:04:01.196Z,24.62
2018-10-12T16:05:01.192Z,24.58
2018-10-12T16:06:01.211Z,24.46
2018-10-12T16:07:01.160Z,24.49
2018-10-12T16:08:01.152Z,24.47
2018-10-12T16:09:01.141Z,24.49
2018-10-12T16:10:01.130Z,24.49
2018-10-12T16:11:01.118Z,24.37
2018-10-12T16:12:01.130Z,24.21
2018-10-12T16:13:01.103Z,24.30
2018-10-12T16:14:01.085Z,24.18
2018-10-12T16:15:01.090Z,24.09
2018-10-12T16:16:01.064Z,24.09
2018-10-12T16:17:01.072Z,24.06
2018-10-12T16:18:01.048Z,24.00
2018-10-12T16:19:01.031Z,23.93
2018-10-12T16:20:01.018Z,23.83
2018-10-12T16:21:01.015Z,23.79
2018-10-12T16:22:01.047Z,23.78
2018-10-12T16:23:01.004Z,23.68
2018-10-12T16:24:00.968Z,23.75
2018-10-12T16:25:00.970Z,23.60
2018-10-12T16:26:00.959Z,23.61
2018-10-12T16:27:01.050Z,23.57
2018-10-12T16:28:00.948Z,23.50
2018-10-12T16:29:00.964Z,23.57
2018-10-12T16:30:00.922Z,23.53
2018-10-12T16:31:00.916Z,23.39
2018-10-12T16:32:00.906Z,23.48
2018-10-12T16:33:00.883Z,23.46
2018-10-12T16:34:00.882Z,23.48
2018-10-12T16:35:00.870Z,23.46
2018-10-12T16:36:00.967Z,23.46
2018-10-12T16:37:00.855Z,23.39
2018-10-12T16:38:00.826Z,23.38
2018-10-12T16:39:00.828Z,23.39
2018-10-12T16:40:00.783Z,23.43
2018-10-12T16:41:00.815Z,23.31
2018-10-12T16:42:00.759Z,23.25
2018-10-12T16:43:00.754Z,23.27
2018-10-12T16:44:00.760Z,23.22
2018-10-12T16:45:00.772Z,23.15
2018-10-12T16:46:00.729Z,23.13
2018-10-12T16:47:00.706Z,23.09
2018-10-12T16:48:00.693Z,23.05
2018-10-12T16:49:00.738Z,23.16
2018-10-12T16:50:00.675Z,23.05
2018-10-12T16:51:00.647Z,23.12
2018-10-12T16:52:00.636Z,23.05
2018-10-12T16:53:00.620Z,22.97
2018-10-12T16:54:00.608Z,22.97
2018-10-12T16:55:00.618Z,22.90
2018-10-12T16:56:00.585Z,22.85
2018-10-12T16:57:00.574Z,22.85
2018-10-12T16:58:00.642Z,22.83
2018-10-12T16:59:00.553Z,22.75
2018-10-12T17:00:00.537Z,22.75
2018-10-12T17:01:00.539Z,22.73
2018-10-12T17:02:00.510Z,22.72
2018-10-12T17:03:00.496Z,22.62
2018-10-12T17:04:00.528Z,22.55
2018-10-12T17:05:00.485Z,22.55
2018-10-12T17:06:00.507Z,22.51
2018-10-12T17:07:00.451Z,22.46
2018-10-12T17:08:00.436Z,22.42
2018-10-12T17:09:00.451Z,22.30
2018-10-12T17:10:00.410Z,22.25
2018-10-12T17:11:00.417Z,22.25
2018-10-12T17:12:00.387Z,22.14
2018-10-12T17:13:00.385Z,22.07
2018-10-12T17:14:00.390Z,22.03
2018-10-12T17:15:00.370Z,22.02
2018-10-12T17:16:00.381Z,21.94
2018-10-12T17:17:00.383Z,22.00
2018-10-12T17:18:00.319Z,21.88
2018-10-12T17:19:00.354Z,22.00
2018-10-12T17:20:00.323Z,21.80
2018-10-12T17:21:00.287Z,21.80
2018-10-12T17:22:00.315Z,21.84
2018-10-12T17:23:00.262Z,22.02
2018-10-12T17:24:00.255Z,21.86
2018-10-12T17:25:00.322Z,21.88
2018-10-12T17:26:00.228Z,21.90
2018-10-12T17:27:00.241Z,21.86
2018-10-12T17:28:00.196Z,21.92
2018-10-12T17:29:00.215Z,21.82
2018-10-12T17:30:00.178Z,21.92
2018-10-12T17:31:00.167Z,21.80
2018-10-12T17:32:00.166Z,21.77
2018-10-12T17:33:00.160Z,21.82
2018-10-12T17:34:00.119Z,21.79
2018-10-12T17:35:00.119Z,21.72
2018-10-12T17:36:00.089Z,21.83
2018-10-12T17:37:00.095Z,21.71
2018-10-12T17:38:00.102Z,21.71
2018-10-12T17:39:00.062Z,21.72
2018-10-12T17:40:00.057Z,21.56
2018-10-12T17:41:00.054Z,21.62
2018-10-12T17:42:00.027Z,21.58
2018-10-12T17:43:00.145Z,21.58
2018-10-12T17:44:00.012Z,21.50
2018-10-12T17:44:59.984Z,21.42
2018-10-12T17:45:59.980Z,21.46
2018-10-12T17:46:59.970Z,21.42
2018-10-12T17:47:59.931Z,21.34
2018-10-12T17:48:59.957Z,21.27
2018-10-12T17:49:59.933Z,21.28
2018-10-12T17:50:59.900Z,21.19
2018-10-12T17:51:59.893Z,21.09
2018-10-12T17:52:59.879Z,21.01
2018-10-12T17:53:59.863Z,20.91
2018-10-12T17:54:59.856Z,20.79
2018-10-12T17:55:59.860Z,20.73
2018-10-12T17:56:59.848Z,20.79
2018-10-12T17:57:59.791Z,20.77
2018-10-12T17:58:59.872Z,20.73
2018-10-12T17:59:59.860Z,20.64
2018-10-12T18:00:59.881Z,20.69
2018-10-12T18:01:59.950Z,20.55
2018-10-12T18:02:59.814Z,20.59
2018-10-12T18:03:59.767Z,20.43
2018-10-12T18:04:59.780Z,20.50
2018-10-12T18:05:59.729Z,20.47
2018-10-12T18:06:59.723Z,20.42
2018-10-12T18:07:59.750Z,20.36
2018-10-12T18:08:59.710Z,20.42
2018-10-12T18:09:59.699Z,20.35
2018-10-12T18:10:59.624Z,20.39
2018-10-12T18:11:59.645Z,20.47
2018-10-12T18:12:59.598Z,20.51
2018-10-12T18:13:59.583Z,20.55
2018-10-12T18:14:59.573Z,20.59
2018-10-12T18:15:59.537Z,20.58
2018-10-12T18:16:59.521Z,20.52
2018-10-12T18:17:59.506Z,20.54
2018-10-12T18:18:59.495Z,20.43
2018-10-12T18:19:59.501Z,20.47
2018-10-12T18:20:59.467Z,20.48
2018-10-12T18:21:59.459Z,20.47
2018-10-12T18:22:59.477Z,20.43
2018-10-12T18:23:59.423Z,20.39
2018-10-12T18:24:59.410Z,20.33
2018-10-12T18:25:59.529Z,20.33
2018-10-12T18:26:59.382Z,20.47
2018-10-12T18:27:59.368Z,20.41
2018-10-12T18:28:59.355Z,20.41
2018-10-12T18:29:59.343Z,20.38
2018-10-12T18:30:59.353Z,20.33
2018-10-12T18:31:59.311Z,20.26
2018-10-12T18:32:59.296Z,20.18
2018-10-12T18:33:59.284Z,20.16
2018-10-12T18:34:59.266Z,20.20
2018-10-12T18:35:59.253Z,20.18
2018-10-12T18:36:59.351Z,20.32
2018-10-12T18:37:59.225Z,20.43
2018-10-12T18:38:59.230Z,20.48
2018-10-12T18:39:59.197Z,20.43
2018-10-12T18:40:59.180Z,20.43
2018-10-12T18:41:59.180Z,20.42
2018-10-12T18:42:59.212Z,20.39
2018-10-12T18:43:59.137Z,20.35
2018-10-12T18:44:59.123Z,20.28
2018-10-12T18:45:59.110Z,20.18
2018-10-12T18:46:59.112Z,20.21
2018-10-12T18:47:59.122Z,20.13
2018-10-12T18:48:59.069Z,20.08
2018-10-12T18:49:59.051Z,20.01
2018-10-12T18:50:59.083Z,20.08
2018-10-12T18:51:59.040Z,20.08
2018-10-12T18:52:59.008Z,20.05
2018-10-12T18:53:59.045Z,20.06
2018-10-12T18:54:58.981Z,20.06
2018-10-12T18:55:58.968Z,20.02
2018-10-12T18:56:58.979Z,20.03
2018-10-12T18:57:58.936Z,19.98
2018-10-12T18:58:58.929Z,20.01
2018-10-12T18:59:58.925Z,19.94
2018-10-12T19:00:58.897Z,19.96
2018-10-12T19:01:58.881Z,19.99
2018-10-12T19:02:58.881Z,20.01
2018-10-12T19:03:58.850Z,19.96
2018-10-12T19:04:58.889Z,19.94
2018-10-12T19:05:58.824Z,19.94
2018-10-12T19:06:58.825Z,19.80
2018-10-12T19:07:58.794Z,19.80
2018-10-12T19:08:58.777Z,19.73
2018-10-12T19:09:58.766Z,19.69
2018-10-12T19:10:58.750Z,19.61
2018-10-12T19:11:58.750Z,19.47
2018-10-12T19:12:58.718Z,19.44
2018-10-12T19:13:58.744Z,19.31
2018-10-12T19:14:58.690Z,19.41
2018-10-12T19:15:58.678Z,19.37
2018-10-12T19:16:58.678Z,19.32
2018-10-12T19:17:58.647Z,19.32
2018-10-12T19:18:58.634Z,19.32
2018-10-12T19:19:58.623Z,19.18
2018-10-12T19:20:58.601Z,19.36
2018-10-12T19:21:58.584Z,19.41
2018-10-12T19:22:58.594Z,19.40
2018-10-12T19:23:58.590Z,19.48
2018-10-12T19:24:58.543Z,19.44
2018-10-12T19:25:58.528Z,19.51
2018-10-12T19:26:58.515Z,19.58
2018-10-12T19:27:58.501Z,19.58
2018-10-12T19:28:58.501Z,19.73
2018-10-12T19:29:58.469Z,19.65
2018-10-12T19:30:58.453Z,19.65
2018-10-12T19:31:58.550Z,19.59
2018-10-12T19:32:58.427Z,19.47
2018-10-12T19:33:58.428Z,19.47
2018-10-12T19:34:58.395Z,19.46
2018-10-12T19:35:58.386Z,19.26
2018-10-12T19:36:58.368Z,19.33
2018-10-12T19:37:58.354Z,19.33
2018-10-12T19:38:58.337Z,19.29
2018-10-12T19:39:58.340Z,19.32
2018-10-12T19:40:58.310Z,19.32
2018-10-12T19:41:58.305Z,19.23
2018-10-12T19:42:58.274Z,19.14
2018-10-12T19:43:58.263Z,19.23
2018-10-12T19:44:58.284Z,19.11
2018-10-12T19:45:58.229Z,19.16
2018-10-12T19:46:58.215Z,19.18
2018-10-12T19:47:58.200Z,19.13
2018-10-12T19:48:58.188Z,19.23
2018-10-12T19:49:58.170Z,19.33
2018-10-12T19:50:58.172Z,19.21
2018-10-12T19:51:58.143Z,19.28
2018-10-12T19:52:58.181Z,19.23
2018-10-12T19:53:58.110Z,19.18
2018-10-12T19:54:58.094Z,19.06
2018-10-12T19:55:58.097Z,18.99
2018-10-12T19:56:58.067Z,18.99
2018-10-12T19:57:58.049Z,19.00
2018-10-12T19:59:05.757Z,18.99
2018-10-12T19:59:58.021Z,18.88
2018-10-12T20:00:58.008Z,18.92
2018-10-12T20:01:58.006Z,18.84
2018-10-12T20:02:57.973Z,18.99
2018-10-12T20:03:57.959Z,19.04
2018-10-12T20:04:57.951Z,19.07
2018-10-12T20:05:57.931Z,19.08
2018-10-12T20:06:57.927Z,19.08
2018-10-12T20:07:57.900Z,19.14
2018-10-12T20:08:57.886Z,19.13
2018-10-12T20:09:57.870Z,19.19
2018-10-12T20:10:57.859Z,19.19
2018-10-12T20:11:57.865Z,19.18
2018-10-12T20:12:57.829Z,19.14
2018-10-12T20:13:57.809Z,19.19
2018-10-12T20:14:57.806Z,19.07
2018-10-12T20:15:57.776Z,18.94
2018-10-12T20:16:57.763Z,18.88
2018-10-12T20:17:57.764Z,18.91
2018-10-12T20:18:57.736Z,18.91
2018-10-12T20:19:57.716Z,18.90
2018-10-12T20:20:57.703Z,18.91
2018-10-12T20:21:57.707Z,18.88
2018-10-12T20:22:57.675Z,19.00
2018-10-12T20:23:57.735Z,19.00
2018-10-12T20:24:57.653Z,19.14
2018-10-12T20:25:57.636Z,19.08
2018-10-12T20:26:57.616Z,19.00
2018-10-12T20:27:57.612Z,19.00
2018-10-12T20:28:57.581Z,18.99
2018-10-12T20:29:57.565Z,19.00
2018-10-12T20:30:57.551Z,18.95
2018-10-12T20:31:57.583Z,19.06
2018-10-12T20:32:57.526Z,19.00
2018-10-12T20:33:57.506Z,18.84
2018-10-12T20:34:57.493Z,18.84
2018-10-12T20:35:57.479Z,18.92
2018-10-12T20:36:57.462Z,18.87
2018-10-12T20:37:57.465Z,18.88
2018-10-12T20:38:57.435Z,18.90
2018-10-12T20:39:57.416Z,18.91
2018-10-12T20:40:57.402Z,18.85
2018-10-12T20:41:57.383Z,18.70
2018-10-12T20:42:57.391Z,18.81
2018-10-12T20:43:57.351Z,18.88
2018-10-12T20:44:57.342Z,18.87
2018-10-12T20:45:57.324Z,18.85
2018-10-12T20:46:57.308Z,18.78
2018-10-12T20:47:57.291Z,18.81
2018-10-12T20:48:57.298Z,18.95
2018-10-12T20:49:57.276Z,18.87
2018-10-12T20:50:57.248Z,19.00
2018-10-12T20:51:57.229Z,19.00
2018-10-12T20:52:57.215Z,18.88
2018-10-12T20:53:57.198Z,18.90
2018-10-12T20:54:57.200Z,18.98
2018-10-12T20:55:57.169Z,18.90
2018-10-12T20:56:57.178Z,18.90
2018-10-12T20:57:57.139Z,18.90
2018-10-12T20:58:57.122Z,18.88
2018-10-12T20:59:57.123Z,18.90
2018-10-12T21:00:57.098Z,18.92
2018-10-12T21:01:57.079Z,18.91
2018-10-12T21:02:57.065Z,18.87
2018-10-12T21:03:57.123Z,18.78
2018-10-12T21:04:57.067Z,18.76
2018-10-12T21:05:57.014Z,18.73
2018-10-12T21:06:57.001Z,18.75
2018-10-12T21:07:56.989Z,18.84
2018-10-12T21:08:56.970Z,18.80
2018-10-12T21:09:56.956Z,18.80
2018-10-12T21:10:56.956Z,18.80
2018-10-12T21:11:56.924Z,18.73
2018-10-12T21:12:56.910Z,18.73
2018-10-12T21:13:56.898Z,18.72
2018-10-12T21:14:56.877Z,18.69
2018-10-12T21:15:56.880Z,18.66
2018-10-12T21:16:56.852Z,18.67
2018-10-12T21:17:56.888Z,18.55
2018-10-12T21:18:56.823Z,18.62
2018-10-12T21:19:56.799Z,18.57
2018-10-12T21:20:56.825Z,18.48
2018-10-12T21:21:56.769Z,18.58
2018-10-12T21:22:56.754Z,18.55
2018-10-12T21:23:56.741Z,18.52
2018-10-12T21:24:56.727Z,18.47
2018-10-12T21:25:56.707Z,18.44
2018-10-12T21:26:56.709Z,18.35
2018-10-12T21:27:56.677Z,18.26
2018-10-12T21:28:56.660Z,18.37
2018-10-12T21:29:56.644Z,18.37
2018-10-12T21:30:56.631Z,18.45
2018-10-12T21:31:56.633Z,18.50
2018-10-12T21:32:56.603Z,18.47
2018-10-12T21:33:56.592Z,18.50
2018-10-12T21:34:56.568Z,18.47
2018-10-12T21:35:56.555Z,18.41
2018-10-12T21:36:56.562Z,18.39
2018-10-12T21:37:56.522Z,18.36
2018-10-12T21:38:56.507Z,18.36
2018-10-12T21:39:56.494Z,18.37
2018-10-12T21:40:56.476Z,18.23
2018-10-12T21:41:56.461Z,18.27
2018-10-12T21:42:56.459Z,18.26
2018-10-12T21:43:56.427Z,18.27
2018-10-12T21:44:56.410Z,18.25
2018-10-12T21:45:56.397Z,18.21
2018-10-12T21:46:56.382Z,18.15
2018-10-12T21:47:56.380Z,18.17
2018-10-12T21:48:56.352Z,18.14
2018-10-12T21:49:56.337Z,18.26
2018-10-12T21:50:56.320Z,18.26
2018-10-12T21:51:56.300Z,18.26
2018-10-12T21:52:56.309Z,18.30
2018-10-12T21:53:56.273Z,18.39
2018-10-12T21:54:56.254Z,18.29
2018-10-12T21:55:56.240Z,18.32
2018-10-12T21:56:56.227Z,18.26
2018-10-12T21:57:56.212Z,18.23
2018-10-12T21:58:56.210Z,18.23
2018-10-12T21:59:56.193Z,18.25
2018-10-12T22:00:56.166Z,18.18
2018-10-12T22:01:56.152Z,18.17
2018-10-12T22:02:56.131Z,18.11
2018-10-12T22:03:56.131Z,18.15
2018-10-12T22:04:56.101Z,18.10
2018-10-12T22:05:56.085Z,18.27
2018-10-12T22:06:56.068Z,18.21
2018-10-12T22:07:56.050Z,18.21
2018-10-12T22:08:56.055Z,18.26
2018-10-12T22:09:56.024Z,18.26
2018-10-12T22:10:56.007Z,18.23
2018-10-12T22:11:55.989Z,18.23
2018-10-12T22:12:55.973Z,18.30
2018-10-12T22:13:56.028Z,18.25
2018-10-12T22:14:55.943Z,18.21
2018-10-12T22:15:55.928Z,18.21
2018-10-12T22:16:55.912Z,18.27
2018-10-12T22:17:55.898Z,18.18
2018-10-12T22:18:55.884Z,18.11
2018-10-12T22:19:55.877Z,17.97
2018-10-12T22:20:55.847Z,17.96
2018-10-12T22:21:55.833Z,18.03
2018-10-12T22:22:55.815Z,18.08
2018-10-12T22:23:55.800Z,18.11
2018-10-12T22:24:55.807Z,18.15
2018-10-12T22:25:55.921Z,18.10
2018-10-12T22:26:55.754Z,18.12
2018-10-12T22:27:55.740Z,18.21
2018-10-12T22:28:55.730Z,18.10
2018-10-12T22:29:55.712Z,18.02
2018-10-12T22:30:55.706Z,18.10
2018-10-12T22:31:55.676Z,18.05
2018-10-12T22:32:55.688Z,18.18
2018-10-12T22:33:55.643Z,18.11
2018-10-12T22:34:55.626Z,18.10
2018-10-12T22:35:55.630Z,18.25
2018-10-12T22:36:55.600Z,18.26
2018-10-12T22:37:55.588Z,18.29
2018-10-12T22:38:55.563Z,18.37
2018-10-12T22:39:55.551Z,18.36
2018-10-12T22:40:55.548Z,18.37
2018-10-12T22:41:55.518Z,18.32
2018-10-12T22:42:55.598Z,18.41
2018-10-12T22:43:55.490Z,18.37
2018-10-12T22:44:55.471Z,18.35
2018-10-12T22:45:55.476Z,18.36
2018-10-12T22:46:55.441Z,18.45
2018-10-12T22:47:55.425Z,18.44
2018-10-12T22:48:55.407Z,18.52
2018-10-12T22:49:55.393Z,18.47
2018-10-12T22:50:55.375Z,18.47
2018-10-12T22:51:55.387Z,18.41
2018-10-12T22:52:55.347Z,18.35
2018-10-12T22:53:55.329Z,18.48
2018-10-12T22:54:55.317Z,18.48
2018-10-12T22:55:55.298Z,18.41
2018-10-12T22:56:55.279Z,18.37
2018-10-12T22:57:55.287Z,18.41
2018-10-12T22:58:55.254Z,18.37
2018-10-12T22:59:55.242Z,18.39
2018-10-12T23:00:55.224Z,18.33
2018-10-12T23:01:55.206Z,18.23
2018-10-12T23:02:55.188Z,18.29
2018-10-12T23:03:55.195Z,18.29
2018-10-12T23:04:55.159Z,18.26
2018-10-12T23:05:55.141Z,18.36
2018-10-12T23:06:55.125Z,18.32
2018-10-12T23:07:55.109Z,18.27
2018-10-12T23:08:55.132Z,18.29
2018-10-12T23:09:55.077Z,18.23
2018-10-12T23:10:55.060Z,18.25
2018-10-12T23:11:55.050Z,18.21
2018-10-12T23:12:55.038Z,18.27
2018-10-12T23:13:55.014Z,18.18
2018-10-12T23:14:55.016Z,18.12
2018-10-12T23:15:54.984Z,18.11
2018-10-12T23:16:54.973Z,18.10
2018-10-12T23:17:54.953Z,18.00
2018-10-12T23:18:54.936Z,17.93
2018-10-12T23:19:54.939Z,17.86
2018-10-12T23:20:54.907Z,17.86
2018-10-12T23:21:54.891Z,17.66
2018-10-12T23:22:54.873Z,17.59
2018-10-12T23:23:54.860Z,17.41
2018-10-12T23:24:54.877Z,17.37
2018-10-12T23:25:54.831Z,17.22
2018-10-12T23:26:54.809Z,17.23
2018-10-12T23:27:54.799Z,17.14
2018-10-12T23:28:54.782Z,17.06
2018-10-12T23:29:54.761Z,16.97
2018-10-12T23:30:54.769Z,16.88
2018-10-12T23:31:54.732Z,16.83
2018-10-12T23:32:54.717Z,16.78
2018-10-12T23:33:54.700Z,16.79
2018-10-12T23:34:54.685Z,16.79
2018-10-12T23:35:54.709Z,16.75
2018-10-12T23:36:54.656Z,16.82
2018-10-12T23:37:54.639Z,16.93
2018-10-12T23:38:54.620Z,16.88
2018-10-12T23:39:54.607Z,16.94
2018-10-12T23:40:54.589Z,16.93
2018-10-12T23:41:54.596Z,16.93
2018-10-12T23:42:54.558Z,16.94
2018-10-12T23:43:54.542Z,16.94
2018-10-12T23:44:54.529Z,17.07
2018-10-12T23:45:54.505Z,17.01
2018-10-12T23:46:54.492Z,16.96
2018-10-12T23:47:54.496Z,16.96
2018-10-12T23:48:54.461Z,16.97
2018-10-12T23:49:54.442Z,17.06
